Aérodrome :
LOGIN :

S'inscrire | Disclaimer

   EN    FR    IT 

 










Légende :    VFR   VFR Marginal   IFR   IFR Intensif   IFR Très Intensif
Visi : 
Plafond : 
>= 8 km
>= 3000ft
5 à 8 km
1000 à 3000 ft
1500m à 5 km
500 à 1000 ft
800 à 1500m
200 à 500 ft
< 800m
< 200 ft
Symboles :   Orages  Brouillard  Fortes neiges  Fortes précipitations  Vent > 20 kt
SIGMETs :   Divers  Orages  Givrage  Turbulence  Onde Orograph.  Cendres Volcan.







- Altitude de l'aérodrome : 913 ft
- Voir les cartes d'approche


LFSX - Luxeuil

DERNIER METAR :
  • 231200Z AUTO 14005KT 100V170 CAVOK 17/03 Q1011 TEMPO 4000 SHRA SCT030TCU

METARs EXPIRÉS :
  • 231130Z AUTO 15010KT CAVOK 17/04 Q1011 TEMPO 4000 SHRA SCT030TCU
  • 231100Z AUTO 16010KT CAVOK 15/03 Q1011 TEMPO 4000 SHRA SCT030TCU
  • 231030Z AUTO 15011KT 120V180 CAVOK 15/03 Q1011 TEMPO 4000 SHRA SCT030TCU
  • 231000Z AUTO 14015KT 9999 ////// 14/// Q1011
  • 230930Z AUTO 12011KT CAVOK 14/04 Q1011 NOSIG

TAF TAF LFSX
Valide du 23 à 09h jusqu'au 24 à 09h UTC


230800Z 2309/2409 13010KT CAVOK
TEMPO 2312/2318 4000 SHRA SCT030TCU
PROB30
TEMPO 2314/2318 TSRA SCT020CB
Pas de NOTAMs connus pour ce terrain.



MET'MAP, la Météo Aéronautique d'un coup d'oeil ! - Copyright ORBIFLY Décembre 2007 - Disclaimer

ORBIFLY MET'MAP TEAM :

Programmation & Développement : Alexandra Zaïnal
Conception & Développement : Baudouin d'Aumeries
Co-Programmation & Développement : Marc-Olivier Méhu
Soutien technique & logistique : Manuel Goepfert

Contact : metmap@orbifly.com




SOURCES & CREDITS :

   NOAA